createdAt,value
2019-02-10T00:02:29.350Z,21.05
2019-02-10T00:07:33.213Z,15.15
2019-02-10T00:12:40.546Z,19.23
2019-02-10T00:17:44.366Z,16.93
2019-02-10T00:22:48.073Z,20.70
2019-02-10T00:27:51.959Z,24.35
2019-02-10T00:32:56.282Z,17.67
2019-02-10T00:38:00.062Z,20.35
2019-02-10T00:43:04.115Z,17.87
2019-02-10T00:48:07.991Z,16.52
2019-02-10T00:53:11.866Z,17.60
2019-02-10T00:58:15.772Z,18.50
2019-02-10T01:03:19.716Z,18.50
2019-02-10T01:08:25.501Z,17.70
2019-02-10T01:13:31.023Z,16.45
2019-02-10T01:18:34.804Z,16.90
2019-02-10T01:23:38.641Z,16.20
2019-02-10T01:28:42.597Z,15.93
2019-02-10T01:33:46.790Z,17.77
2019-02-10T01:38:51.919Z,19.20
2019-02-10T01:43:55.737Z,19.07
2019-02-10T01:48:59.484Z,19.42
2019-02-10T01:54:06.342Z,18.43
2019-02-10T01:59:10.275Z,20.92
2019-02-10T02:04:14.048Z,22.22
2019-02-10T02:09:18.025Z,22.22
2019-02-10T02:14:22.453Z,21.00
2019-02-10T02:19:26.170Z,20.92
2019-02-10T02:24:29.899Z,20.97
2019-02-10T02:29:33.869Z,21.37
2019-02-10T02:34:39.732Z,22.80
2019-02-10T02:39:45.221Z,21.47
2019-02-10T02:44:49.236Z,22.95
2019-02-10T02:49:53.253Z,21.63
2019-02-10T02:54:57.385Z,18.10
2019-02-10T03:00:01.418Z,17.60
2019-02-10T03:05:06.925Z,16.40
2019-02-10T03:10:10.926Z,16.32
2019-02-10T03:15:15.669Z,24.40
2019-02-10T03:20:19.329Z,18.23
2019-02-10T03:25:24.184Z,15.60
2019-02-10T03:30:28.173Z,16.13
2019-02-10T03:35:32.983Z,16.80
2019-02-10T03:40:37.200Z,17.70
2019-02-10T03:45:41.301Z,20.43
2019-02-10T03:50:45.263Z,18.87
2019-02-10T03:55:53.084Z,16.50
2019-02-10T04:00:56.857Z,18.45
2019-02-10T04:06:00.604Z,25.57
2019-02-10T04:11:06.902Z,34.35
2019-02-10T04:16:12.377Z,24.12
2019-02-10T04:21:16.152Z,25.63
2019-02-10T04:26:20.080Z,18.70
2019-02-10T04:31:24.017Z,26.17
2019-02-10T04:36:27.808Z,19.27
2019-02-10T04:41:31.746Z,17.17
2019-02-10T04:46:35.613Z,18.90
2019-02-10T04:51:39.631Z,19.97
2019-02-10T04:56:43.659Z,22.07
2019-02-10T05:01:50.985Z,19.30
2019-02-10T05:06:56.666Z,17.93
2019-02-10T05:12:00.903Z,33.90
2019-02-10T05:17:06.503Z,18.77
2019-02-10T05:22:10.399Z,24.67
2019-02-10T05:27:14.548Z,24.67
2019-02-10T05:32:19.172Z,28.20
2019-02-10T05:37:24.556Z,23.97
2019-02-10T05:42:28.428Z,23.70
2019-02-10T05:47:32.319Z,23.30
2019-02-10T05:52:36.157Z,21.83
2019-02-10T05:57:40.166Z,20.25
2019-02-10T06:02:44.258Z,28.32
2019-02-10T06:07:48.070Z,20.63
2019-02-10T06:12:52.945Z,17.82
2019-02-10T06:17:58.387Z,26.57
2019-02-10T06:23:02.330Z,22.73
2019-02-10T06:28:06.194Z,21.48
2019-02-10T06:33:11.124Z,35.90
2019-02-10T06:38:22.248Z,23.65
2019-02-10T06:43:20.737Z,18.40
2019-02-10T06:48:25.630Z,24.73
2019-02-10T06:53:29.477Z,16.27
2019-02-10T06:58:33.330Z,19.20
2019-02-10T07:03:54.549Z,19.67
2019-02-10T07:08:58.546Z,17.98
2019-02-10T07:14:04.568Z,14.47
2019-02-10T07:19:45.770Z,18.37
2019-02-10T07:25:00.449Z,17.92
2019-02-10T07:30:56.902Z,15.80
2019-02-10T07:36:37.512Z,16.87
2019-02-10T07:42:08.893Z,20.02
2019-02-10T07:48:02.434Z,27.27
2019-02-10T07:53:47.802Z,23.62
2019-02-10T07:59:34.818Z,28.05
2019-02-10T08:04:57.118Z,29.55
2019-02-10T08:10:47.452Z,42.23
2019-02-10T08:16:23.519Z,32.58
2019-02-10T08:21:36.303Z,40.80
2019-02-10T08:27:22.666Z,31.90
2019-02-10T08:32:58.425Z,26.37
2019-02-10T08:38:54.802Z,29.07
2019-02-10T08:44:40.845Z,28.02
2019-02-10T08:50:13.485Z,23.98
2019-02-10T08:55:17.377Z,24.45
2019-02-10T09:00:23.876Z,23.92
2019-02-10T09:05:39.803Z,23.18
2019-02-10T09:10:52.138Z,28.80
2019-02-10T09:15:57.164Z,25.23
2019-02-10T09:21:04.482Z,29.27
2019-02-10T09:26:13.469Z,25.17
2019-02-10T09:31:18.627Z,28.20
2019-02-10T09:36:24.777Z,33.05
2019-02-10T09:41:29.482Z,29.77
2019-02-10T09:46:35.116Z,25.72
2019-02-10T09:51:40.559Z,24.43
2019-02-10T09:56:45.642Z,25.95
2019-02-10T10:01:51.205Z,33.20
2019-02-10T10:06:57.667Z,30.35
2019-02-10T10:12:07.063Z,27.10
2019-02-10T10:17:11.425Z,28.75
2019-02-10T10:22:19.952Z,27.95
2019-02-10T10:27:25.345Z,27.50
2019-02-10T10:32:29.228Z,30.82
2019-02-10T10:37:33.046Z,28.38
2019-02-10T10:42:39.111Z,27.35
2019-02-10T10:47:43.180Z,36.53
2019-02-10T10:52:47.813Z,31.15
2019-02-10T10:58:19.357Z,42.45
2019-02-10T11:03:29.116Z,49.05
2019-02-10T11:08:35.870Z,28.92
2019-02-10T11:13:41.133Z,30.27
2019-02-10T11:18:45.479Z,30.32
2019-02-10T11:23:50.519Z,29.63
2019-02-10T11:28:57.596Z,36.95
2019-02-10T11:34:04.139Z,33.15
2019-02-10T11:39:08.973Z,31.52
2019-02-10T11:44:14.459Z,27.02
2019-02-10T11:49:19.546Z,26.48
2019-02-10T11:54:24.513Z,28.98
2019-02-10T11:59:30.491Z,34.80
2019-02-10T12:04:49.606Z,31.17
2019-02-10T12:10:01.673Z,28.80
2019-02-10T12:15:10.353Z,25.17
